Time;durP1;ratioP1;P1;durP2;ratioP2;P2;SDS_P1;SDS_P2;PMS_P1;PMS_P2;Temp;Humidity;BMP_temperature;BMP_pressure;BME280_temperature;BME280_humidity;BME280_pressure;Samples;Min_cycle;Max_cycle;Signal;HPM_P1;HPM_P2
2022/07/29 00:00:50;;;;;;;3.00;1.70;;;15.20;99.90;;;;;;3059034;19;20010;-67
2022/07/29 00:01:54;;;;;;;2.80;1.85;;;15.40;99.90;;;;;;3057867;19;20018;-66
2022/07/29 00:02:56;;;;;;;5.10;2.22;;;15.60;99.90;;;;;;3057611;19;20010;-66
2022/07/29 00:03:59;;;;;;;5.35;2.10;;;15.40;99.90;;;;;;3057654;19;20035;-66
2022/07/29 00:05:01;;;;;;;5.78;1.90;;;15.00;99.90;;;;;;3057875;19;20017;-67
2022/07/29 00:06:05;;;;;;;2.75;1.77;;;15.00;99.90;;;;;;3057484;19;20014;-66
2022/07/29 00:07:06;;;;;;;3.17;2.22;;;15.30;99.90;;;;;;3058092;19;20009;-66
2022/07/29 00:08:11;;;;;;;4.13;2.15;;;15.30;99.90;;;;;;3057730;19;20010;-66
2022/07/29 00:09:12;;;;;;;3.92;2.15;;;15.20;99.90;;;;;;3058193;19;20345;-66
2022/07/29 00:10:16;;;;;;;4.88;1.92;;;15.30;99.90;;;;;;3057658;19;20019;-66
2022/07/29 00:11:17;;;;;;;3.72;1.92;;;15.10;99.90;;;;;;3057863;19;20025;-66
2022/07/29 00:12:21;;;;;;;3.17;2.05;;;15.30;99.90;;;;;;3058212;19;20103;-66
2022/07/29 00:13:22;;;;;;;4.60;2.05;;;15.30;99.90;;;;;;3056952;19;20025;-66
2022/07/29 00:14:26;;;;;;;3.00;1.70;;;15.70;99.90;;;;;;3058855;19;20011;-67
2022/07/29 00:15:33;;;;;;;2.92;1.95;;;15.10;99.90;;;;;;3057784;19;20002;-66
2022/07/29 00:16:35;;;;;;;3.10;1.80;;;15.20;99.90;;;;;;3058289;19;20015;-66
2022/07/29 00:17:38;;;;;;;2.78;1.90;;;15.20;99.90;;;;;;3058114;19;20015;-66
2022/07/29 00:18:42;;;;;;;4.95;2.08;;;15.10;99.90;;;;;;3057829;19;20022;-66
2022/07/29 00:19:46;;;;;;;3.22;1.83;;;15.10;99.90;;;;;;3058444;19;20375;-66
2022/07/29 00:20:51;;;;;;;4.55;2.10;;;15.10;99.90;;;;;;3057926;19;20454;-66
2022/07/29 00:21:53;;;;;;;4.13;2.00;;;15.60;99.90;;;;;;3059791;19;20011;-67
2022/07/29 00:22:56;;;;;;;4.38;2.08;;;15.10;99.90;;;;;;3056865;19;20820;-66
2022/07/29 00:23:58;;;;;;;4.85;2.20;;;15.20;99.90;;;;;;3057953;19;20019;-66
2022/07/29 00:25:02;;;;;;;4.50;1.95;;;15.30;99.90;;;;;;3057534;19;20011;-66
2022/07/29 00:26:03;;;;;;;6.03;2.00;;;15.20;99.90;;;;;;3058329;19;20022;-66
2022/07/29 00:27:07;;;;;;;3.53;2.20;;;15.10;99.90;;;;;;3058626;19;20018;-66
2022/07/29 00:28:08;;;;;;;4.15;2.10;;;15.20;99.90;;;;;;3057629;19;20345;-66
2022/07/29 00:29:12;;;;;;;5.00;2.10;;;15.50;99.90;;;;;;3058974;19;20014;-66
2022/07/29 00:30:14;;;;;;;5.72;2.40;;;15.10;99.90;;;;;;3058573;19;20050;-66
2022/07/29 00:31:20;;;;;;;3.90;2.17;;;15.10;99.90;;;;;;3057993;19;20504;-67
2022/07/29 00:32:21;;;;;;;4.35;1.98;;;15.10;99.90;;;;;;3057853;19;20010;-67
2022/07/29 00:33:25;;;;;;;4.40;2.15;;;15.20;99.90;;;;;;3057191;19;20022;-67
2022/07/29 00:35:43;;;;;;;3.45;2.10;;;15.00;99.90;;;;;;3057682;19;20460;-66
2022/07/29 00:36:47;;;;;;;5.63;2.22;;;15.30;99.90;;;;;;3057684;19;20028;-67
2022/07/29 00:37:48;;;;;;;4.90;2.17;;;15.10;99.90;;;;;;3057228;19;20006;-67
2022/07/29 00:38:53;;;;;;;5.65;2.42;;;15.40;99.90;;;;;;3058193;19;20048;-67
2022/07/29 00:39:54;;;;;;;5.22;2.22;;;15.20;99.90;;;;;;3057287;19;20010;-66
2022/07/29 00:40:58;;;;;;;5.93;2.33;;;15.20;99.90;;;;;;3058327;19;20014;-67
2022/07/29 00:42:02;;;;;;;4.80;2.20;;;15.90;99.90;;;;;;3057479;19;20034;-66
2022/07/29 00:43:06;;;;;;;3.95;1.80;;;15.10;99.90;;;;;;3057188;19;20520;-67
2022/07/29 00:44:08;;;;;;;4.55;2.17;;;15.20;99.90;;;;;;3058189;19;20397;-66
2022/07/29 00:45:12;;;;;;;3.42;2.17;;;15.20;99.90;;;;;;3057531;19;20029;-66
2022/07/29 00:46:14;;;;;;;5.38;2.25;;;15.20;99.90;;;;;;3057329;19;20010;-66
2022/07/29 00:47:20;;;;;;;5.43;2.30;;;15.30;99.90;;;;;;3057737;19;20023;-68
2022/07/29 00:48:22;;;;;;;3.28;2.03;;;15.20;99.90;;;;;;3056541;19;20010;-66
2022/07/29 00:49:26;;;;;;;3.28;2.08;;;15.30;99.90;;;;;;3058189;19;20010;-67
2022/07/29 00:50:30;;;;;;;4.57;2.30;;;16.30;99.90;;;;;;3057632;19;20399;-67
2022/07/29 00:51:32;;;;;;;5.03;2.20;;;15.20;99.90;;;;;;3060772;19;20025;-67
2022/07/29 00:52:38;;;;;;;4.75;2.33;;;15.30;99.90;;;;;;3059572;19;20645;-67
2022/07/29 00:53:39;;;;;;;4.40;2.10;;;15.20;99.90;;;;;;3060880;19;20010;-66
2022/07/29 00:54:43;;;;;;;4.63;2.25;;;15.30;99.90;;;;;;3060281;19;20064;-66
2022/07/29 00:55:47;;;;;;;3.72;2.22;;;15.20;99.90;;;;;;3061656;19;20018;-66
2022/07/29 00:56:49;;;;;;;3.95;2.03;;;15.30;99.90;;;;;;3061217;19;22170;-67
2022/07/29 00:57:52;;;;;;;;;;;15.20;99.90;;;;;;3061114;19;20002;-67
2022/07/29 00:58:55;;;;;;;3.88;1.98;;;15.10;99.90;;;;;;3061978;19;20332;-66
2022/07/29 00:59:59;;;;;;;3.15;2.00;;;15.20;99.90;;;;;;3060605;19;20019;-67
2022/07/29 01:01:00;;;;;;;4.80;2.25;;;15.30;99.90;;;;;;3062224;19;20018;-67
2022/07/29 01:02:04;;;;;;;6.25;2.45;;;15.10;99.90;;;;;;3061216;19;20085;-66
2022/07/29 01:03:11;;;;;;;4.15;2.30;;;15.20;99.90;;;;;;3059936;19;20019;-66
2022/07/29 01:04:12;;;;;;;4.90;2.10;;;15.00;99.90;;;;;;3059263;19;20010;-66
2022/07/29 01:05:17;;;;;;;4.82;2.30;;;15.20;99.90;;;;;;3060716;19;20025;-66
2022/07/29 01:06:19;;;;;;;4.50;2.30;;;15.30;99.90;;;;;;3060020;19;20499;-67
2022/07/29 01:07:23;;;;;;;4.50;1.98;;;15.40;99.90;;;;;;3061582;19;20017;-66
2022/07/29 01:08:27;;;;;;;5.13;2.15;;;15.10;99.90;;;;;;3060128;19;20360;-66
2022/07/29 01:09:29;;;;;;;3.13;1.90;;;15.20;99.90;;;;;;3062432;19;20010;-67
2022/07/29 01:10:33;;;;;;;4.10;2.38;;;15.30;99.90;;;;;;3060875;19;20026;-66
2022/07/29 01:11:35;;;;;;;3.13;1.90;;;15.10;99.90;;;;;;3060257;19;20479;-67
2022/07/29 01:12:40;;;;;;;2.72;2.08;;;15.30;99.90;;;;;;3058591;19;20374;-67
2022/07/29 01:13:45;;;;;;;5.20;1.90;;;15.20;99.90;;;;;;3061345;19;20025;-66
2022/07/29 01:14:48;;;;;;;4.55;2.20;;;15.30;99.90;;;;;;3060149;19;20019;-66
2022/07/29 01:15:59;;;;;;;6.18;2.30;;;15.20;99.90;;;;;;3061073;19;20078;-67
2022/07/29 01:17:06;;;;;;;5.53;2.00;;;15.30;99.90;;;;;;3060145;19;20022;-66
2022/07/29 01:18:19;;;;;;;2.90;2.20;;;15.20;99.90;;;;;;3058990;19;20114;-67
2022/07/29 01:19:43;;;;;;;3.97;2.10;;;15.20;99.90;;;;;;3060814;19;20011;-67
2022/07/29 01:21:07;;;;;;;5.05;1.90;;;15.40;99.90;;;;;;3059850;19;20003;-66
2022/07/29 01:22:27;;;;;;;3.25;2.00;;;15.60;99.90;;;;;;3060550;19;20043;-67
2022/07/29 01:23:57;;;;;;;6.20;2.72;;;14.80;99.90;;;;;;3059743;19;20118;-66
2022/07/29 01:25:14;;;;;;;4.78;2.20;;;15.20;99.90;;;;;;3059855;19;20018;-67
2022/07/29 01:26:51;;;;;;;2.97;1.95;;;15.30;99.90;;;;;;3060730;19;20006;-67
2022/07/29 01:28:08;;;;;;;3.20;2.00;;;15.10;99.90;;;;;;3061122;19;20035;-67
2022/07/29 01:29:25;;;;;;;6.03;1.90;;;15.20;99.90;;;;;;3060910;19;20007;-66
2022/07/29 01:30:28;;;;;;;3.53;1.83;;;15.10;99.90;;;;;;3059617;19;20023;-66
2022/07/29 01:31:41;;;;;;;5.25;1.95;;;15.10;99.90;;;;;;3059916;19;20010;-66
2022/07/29 01:32:47;;;;;;;4.28;2.28;;;15.10;99.90;;;;;;3057932;19;20709;-66
2022/07/29 01:33:57;;;;;;;5.63;2.17;;;15.10;99.90;;;;;;3058995;19;20022;-66
2022/07/29 01:35:08;;;;;;;4.97;2.10;;;15.10;99.90;;;;;;3058432;19;20488;-67
2022/07/29 01:36:14;;;;;;;3.38;1.85;;;15.20;99.90;;;;;;3058696;19;20041;-67
2022/07/29 01:37:22;;;;;;;3.05;2.20;;;15.20;99.90;;;;;;3060303;19;20018;-66
2022/07/29 01:38:28;;;;;;;4.18;1.98;;;15.10;99.90;;;;;;3060209;19;20015;-66
2022/07/29 01:39:35;;;;;;;4.03;2.20;;;15.10;99.90;;;;;;3059813;19;20007;-66
2022/07/29 01:40:44;;;;;;;3.30;2.17;;;14.70;99.90;;;;;;3061214;19;20074;-66
2022/07/29 01:41:53;;;;;;;2.70;1.85;;;15.10;99.90;;;;;;3059306;19;20017;-67
2022/07/29 01:42:57;;;;;;;2.50;2.00;;;15.10;99.90;;;;;;3059009;19;20035;-66
2022/07/29 01:44:05;;;;;;;5.03;2.10;;;15.10;99.90;;;;;;3061544;19;20362;-66
2022/07/29 01:45:14;;;;;;;3.33;2.15;;;15.30;99.90;;;;;;3060731;19;20030;-66
2022/07/29 01:46:26;;;;;;;3.20;1.80;;;15.20;99.90;;;;;;3060635;19;20374;-67
2022/07/29 01:47:33;;;;;;;3.03;1.95;;;15.20;99.90;;;;;;3060042;19;20026;-66
2022/07/29 01:48:42;;;;;;;3.78;2.10;;;15.60;99.90;;;;;;3059432;19;20011;-67
2022/07/29 01:49:52;;;;;;;4.40;2.10;;;15.10;99.90;;;;;;3059759;19;20014;-66
2022/07/29 01:51:01;;;;;;;4.82;1.90;;;14.80;99.90;;;;;;3058916;19;20021;-67
2022/07/29 01:52:11;;;;;;;2.58;1.70;;;15.00;99.90;;;;;;3058880;19;20010;-66
2022/07/29 01:53:16;;;;;;;2.88;1.80;;;15.10;99.90;;;;;;3059056;19;20409;-66
2022/07/29 01:54:25;;;;;;;5.10;1.80;;;14.90;99.90;;;;;;3057851;19;20039;-67
2022/07/29 01:55:31;;;;;;;3.75;2.00;;;15.20;99.90;;;;;;3060533;19;20049;-66
2022/07/29 01:56:36;;;;;;;2.40;1.92;;;15.10;99.90;;;;;;3058183;19;20050;-66
2022/07/29 01:57:38;;;;;;;3.45;1.90;;;15.20;99.90;;;;;;3059373;19;20018;-66
2022/07/29 01:58:45;;;;;;;3.33;1.75;;;15.10;99.90;;;;;;3059528;19;20074;-66
2022/07/29 01:59:48;;;;;;;5.28;2.08;;;15.20;99.90;;;;;;3059750;19;20041;-67
2022/07/29 02:00:56;;;;;;;3.90;2.03;;;15.10;99.90;;;;;;3060909;19;20046;-67
2022/07/29 02:01:59;;;;;;;2.85;1.80;;;15.10;99.90;;;;;;3059478;19;20024;-67
2022/07/29 02:03:08;;;;;;;3.92;1.80;;;15.00;99.90;;;;;;3059398;19;20038;-67
2022/07/29 02:04:12;;;;;;;8.27;2.40;;;15.00;99.90;;;;;;3060810;19;20033;-66
2022/07/29 02:05:19;;;;;;;3.53;2.03;;;14.90;99.90;;;;;;3058461;19;20114;-67
2022/07/29 02:06:22;;;;;;;4.57;2.05;;;14.60;99.90;;;;;;3057992;19;20018;-66
2022/07/29 02:07:30;;;;;;;4.13;1.80;;;15.30;99.90;;;;;;3058729;19;20022;-66
2022/07/29 02:08:33;;;;;;;3.67;2.00;;;15.10;99.90;;;;;;3059451;19;20082;-67
2022/07/29 02:09:38;;;;;;;2.60;1.73;;;15.10;99.90;;;;;;3060592;19;20118;-67
2022/07/29 02:10:40;;;;;;;3.17;1.90;;;15.10;99.90;;;;;;3060864;19;20014;-66
2022/07/29 02:11:50;;;;;;;4.60;1.95;;;15.10;99.90;;;;;;3060909;19;20349;-67
2022/07/29 02:12:53;;;;;;;3.25;2.08;;;15.10;99.90;;;;;;3057466;19;20022;-67
2022/07/29 02:14:00;;;;;;;3.65;2.08;;;15.00;99.90;;;;;;3058421;19;20043;-66
2022/07/29 02:15:04;;;;;;;4.05;1.90;;;15.40;99.90;;;;;;3059256;19;20019;-66
2022/07/29 02:16:12;;;;;;;4.35;1.88;;;14.90;99.90;;;;;;3057711;19;20014;-67
2022/07/29 02:17:20;;;;;;;4.65;2.28;;;14.60;99.90;;;;;;3059252;19;20054;-67
2022/07/29 02:18:27;;;;;;;5.13;2.20;;;14.90;99.90;;;;;;3059958;19;20021;-66
2022/07/29 02:19:31;;;;;;;2.95;2.00;;;15.30;99.90;;;;;;3059373;19;20360;-66
2022/07/29 02:20:36;;;;;;;3.80;2.13;;;14.90;99.90;;;;;;3060252;19;20035;-67
2022/07/29 02:21:38;;;;;;;3.40;2.03;;;15.10;99.90;;;;;;3059164;19;20018;-67
2022/07/29 02:22:43;;;;;;;3.35;1.88;;;15.00;99.90;;;;;;3060913;19;20039;-66
2022/07/29 02:23:46;;;;;;;4.20;2.10;;;15.00;99.90;;;;;;3060777;19;20483;-67
2022/07/29 02:24:51;;;;;;;5.22;2.17;;;15.00;99.90;;;;;;3059821;19;20019;-67
2022/07/29 02:25:55;;;;;;;2.20;1.77;;;15.10;99.90;;;;;;3058963;19;20070;-67
2022/07/29 02:27:01;;;;;;;3.58;2.00;;;15.00;99.90;;;;;;3060413;19;20031;-66
2022/07/29 02:28:03;;;;;;;4.15;2.00;;;15.10;99.90;;;;;;3058629;19;20006;-67
2022/07/29 02:29:09;;;;;;;4.18;2.22;;;15.00;99.90;;;;;;3059186;19;20352;-66
2022/07/29 02:30:12;;;;;;;3.25;1.80;;;15.10;99.90;;;;;;3058834;19;20571;-67
2022/07/29 02:31:20;;;;;;;3.92;2.17;;;15.10;99.90;;;;;;3058083;19;20015;-66
2022/07/29 02:32:22;;;;;;;3.47;1.77;;;15.10;99.90;;;;;;3058761;19;20015;-66
2022/07/29 02:33:27;;;;;;;4.25;2.00;;;15.10;99.90;;;;;;3059070;19;20014;-66
2022/07/29 02:34:30;;;;;;;3.60;2.00;;;15.00;99.90;;;;;;3059770;19;20014;-66
2022/07/29 02:35:34;;;;;;;3.88;1.77;;;14.90;99.90;;;;;;3058596;19;20382;-67
2022/07/29 02:36:37;;;;;;;3.30;2.03;;;15.10;99.90;;;;;;3058679;19;20022;-67
2022/07/29 02:37:43;;;;;;;3.35;1.80;;;15.00;99.90;;;;;;3059577;19;20584;-66
2022/07/29 02:38:51;;;;;;;3.55;2.10;;;15.10;99.90;;;;;;3059089;19;20006;-67
2022/07/29 02:39:54;;;;;;;3.17;2.25;;;15.00;99.90;;;;;;3060912;19;20209;-67
2022/07/29 02:41:01;;;;;;;4.03;1.98;;;15.00;99.90;;;;;;3058682;19;20356;-66
2022/07/29 02:42:09;;;;;;;4.72;2.10;;;15.20;99.90;;;;;;3058742;19;19998;-66
2022/07/29 02:43:11;;;;;;;2.97;2.00;;;15.00;99.90;;;;;;3059839;19;20011;-67
2022/07/29 02:44:18;;;;;;;4.25;1.80;;;14.60;99.90;;;;;;3059449;19;20018;-66
2022/07/29 02:45:19;;;;;;;4.80;1.90;;;14.90;99.90;;;;;;3059126;19;20003;-67
2022/07/29 02:46:31;;;;;;;5.05;2.35;;;15.00;99.90;;;;;;3059129;19;20015;-66
2022/07/29 02:47:39;;;;;;;4.00;1.90;;;14.90;99.90;;;;;;3058829;19;20027;-66
2022/07/29 02:48:49;;;;;;;4.72;2.00;;;14.90;99.90;;;;;;3058762;19;20022;-66
2022/07/29 02:49:58;;;;;;;4.85;2.15;;;15.00;99.90;;;;;;3059160;19;20034;-66
2022/07/29 02:51:05;;;;;;;4.53;2.10;;;15.40;99.90;;;;;;3059434;19;20475;-66
2022/07/29 02:52:15;;;;;;;4.47;2.13;;;14.80;99.90;;;;;;3059847;19;20025;-66
2022/07/29 02:53:20;;;;;;;4.90;1.95;;;15.00;99.90;;;;;;3059363;19;20022;-67
2022/07/29 02:54:33;;;;;;;3.15;2.20;;;15.00;99.90;;;;;;3057691;19;19998;-66
2022/07/29 02:55:39;;;;;;;4.25;2.00;;;15.00;99.90;;;;;;3058778;19;20014;-66
2022/07/29 02:56:45;;;;;;;6.05;2.13;;;14.80;99.90;;;;;;3058663;19;20014;-67
2022/07/29 02:57:51;;;;;;;6.95;1.95;;;14.90;99.90;;;;;;3059275;19;20009;-66
2022/07/29 02:58:58;;;;;;;3.13;1.88;;;15.00;99.90;;;;;;3059098;19;20480;-66
2022/07/29 03:00:06;;;;;;;3.75;2.10;;;14.90;99.90;;;;;;3059204;19;20014;-66
2022/07/29 03:01:14;;;;;;;4.35;2.15;;;15.00;99.90;;;;;;3060138;19;20018;-66
2022/07/29 03:02:21;;;;;;;3.88;1.88;;;15.30;99.90;;;;;;3058785;19;20007;-66
2022/07/29 03:03:27;;;;;;;2.75;1.83;;;15.00;99.90;;;;;;3057111;19;20543;-66
2022/07/29 03:04:33;;;;;;;5.53;2.20;;;14.90;99.90;;;;;;3059416;19;20121;-66
2022/07/29 03:05:35;;;;;;;6.88;2.40;;;14.90;99.90;;;;;;3058624;19;20018;-66
2022/07/29 03:06:39;;;;;;;;;;;14.90;99.90;;;;;;3059098;19;20025;-66
2022/07/29 03:07:45;;;;;;;4.65;2.05;;;14.70;99.90;;;;;;3058724;19;20249;-67
2022/07/29 03:08:50;;;;;;;3.70;2.00;;;15.10;99.90;;;;;;3060577;19;20019;-66
2022/07/29 03:09:52;;;;;;;4.10;2.10;;;15.60;99.90;;;;;;3058172;19;20021;-66
2022/07/29 03:10:56;;;;;;;;;;;14.80;99.90;;;;;;3059036;19;20015;-66
2022/07/29 03:11:57;;;;;;;3.17;1.88;;;14.70;99.90;;;;;;3057625;19;19926;-66
2022/07/29 03:13:03;;;;;;;4.85;2.30;;;14.80;99.90;;;;;;3056626;19;20039;-66
2022/07/29 03:14:05;;;;;;;3.88;2.10;;;14.80;99.90;;;;;;3056991;19;20100;-67
2022/07/29 03:15:10;;;;;;;3.38;1.80;;;14.80;99.90;;;;;;3058807;19;20014;-66
2022/07/29 03:16:13;;;;;;;5.88;2.30;;;14.80;99.90;;;;;;3059532;19;20014;-66
2022/07/29 03:17:20;;;;;;;4.43;1.95;;;14.80;99.90;;;;;;3058719;19;20014;-66
2022/07/29 03:18:22;;;;;;;5.47;1.90;;;14.80;99.90;;;;;;3058398;19;20467;-66
2022/07/29 03:19:26;;;;;;;4.50;1.92;;;14.90;99.90;;;;;;3059315;19;20014;-66
2022/07/29 03:20:27;;;;;;;4.05;2.10;;;14.70;99.90;;;;;;3058396;19;20006;-66
2022/07/29 03:21:31;;;;;;;3.58;2.17;;;14.90;99.90;;;;;;3058535;19;20019;-67
2022/07/29 03:22:33;;;;;;;4.45;2.10;;;14.80;99.90;;;;;;3057414;19;20018;-66
2022/07/29 03:23:37;;;;;;;5.10;2.15;;;14.90;99.90;;;;;;3059571;19;20018;-66
2022/07/29 03:24:38;;;;;;;4.38;2.17;;;14.80;99.90;;;;;;3058333;19;20014;-66
2022/07/29 03:25:42;;;;;;;4.20;2.08;;;14.80;99.90;;;;;;3058008;19;20007;-67
2022/07/29 03:26:44;;;;;;;6.35;2.20;;;14.90;99.90;;;;;;3059926;19;20015;-67
2022/07/29 03:27:48;;;;;;;4.03;2.08;;;14.70;99.90;;;;;;3059339;19;20029;-66
2022/07/29 03:28:50;;;;;;;4.25;2.10;;;14.80;99.90;;;;;;3058326;19;20017;-67
2022/07/29 03:29:53;;;;;;;4.65;2.33;;;14.60;99.90;;;;;;3058715;19;20019;-66
2022/07/29 03:30:55;;;;;;;3.63;1.95;;;14.70;99.90;;;;;;3058106;19;20033;-67
2022/07/29 03:31:59;;;;;;;4.13;1.88;;;14.80;99.90;;;;;;3057995;19;20502;-66
2022/07/29 03:33:03;;;;;;;5.38;2.00;;;14.90;99.90;;;;;;3058096;19;20027;-66
2022/07/29 03:34:07;;;;;;;4.63;2.28;;;14.60;99.90;;;;;;3058609;19;20374;-67
2022/07/29 03:35:08;;;;;;;6.40;2.17;;;14.70;99.90;;;;;;3058804;19;20515;-66
2022/07/29 03:36:13;;;;;;;4.72;2.28;;;14.90;99.90;;;;;;3057547;19;20023;-67
2022/07/29 03:37:14;;;;;;;5.10;2.00;;;14.70;99.90;;;;;;3058694;19;20337;-67
2022/07/29 03:38:18;;;;;;;2.80;1.60;;;14.80;99.90;;;;;;3058084;19;20492;-66
2022/07/29 03:39:24;;;;;;;3.50;2.30;;;14.90;99.90;;;;;;3059691;19;20112;-66
2022/07/29 03:40:32;;;;;;;4.13;2.03;;;15.00;99.90;;;;;;3057683;19;20052;-66
2022/07/29 03:41:35;;;;;;;5.13;2.45;;;14.90;99.90;;;;;;3059089;19;20035;-66
2022/07/29 03:42:42;;;;;;;5.53;2.25;;;14.80;99.90;;;;;;3059090;19;20423;-66
2022/07/29 03:43:46;;;;;;;6.50;2.40;;;14.70;99.90;;;;;;3059643;19;20031;-66
2022/07/29 03:44:51;;;;;;;3.13;1.73;;;14.80;99.90;;;;;;3058298;19;20010;-66
2022/07/29 03:45:55;;;;;;;5.30;2.53;;;14.60;99.90;;;;;;3059790;19;20419;-66
2022/07/29 03:47:02;;;;;;;6.10;2.10;;;14.70;99.90;;;;;;3058253;19;20011;-66
2022/07/29 03:48:12;;;;;;;4.22;2.00;;;14.80;99.90;;;;;;3058397;19;20364;-66
2022/07/29 03:49:18;;;;;;;4.35;2.08;;;14.80;99.90;;;;;;3059386;19;20021;-66
2022/07/29 03:50:21;;;;;;;4.50;2.22;;;14.70;99.90;;;;;;3057867;19;20017;-66
2022/07/29 03:51:24;;;;;;;;;;;14.60;99.90;;;;;;3059659;19;20006;-66
2022/07/29 03:52:26;;;;;;;5.15;1.98;;;14.60;99.90;;;;;;3058671;19;19919;-66
2022/07/29 03:53:30;;;;;;;3.50;2.10;;;14.70;99.90;;;;;;3056785;19;20022;-66
2022/07/29 03:54:31;;;;;;;4.88;2.10;;;14.90;99.90;;;;;;3058001;19;20017;-66
2022/07/29 03:55:42;;;;;;;4.40;2.30;;;15.10;99.90;;;;;;3057843;19;20014;-67
2022/07/29 03:56:47;;;;;;;6.22;2.30;;;14.40;99.90;;;;;;3059381;19;20011;-66
2022/07/29 03:57:52;;;;;;;4.68;2.10;;;14.70;99.90;;;;;;3058030;19;19998;-67
2022/07/29 03:58:54;;;;;;;5.03;1.90;;;14.60;99.90;;;;;;3058230;19;20018;-66
2022/07/29 03:59:59;;;;;;;4.03;2.10;;;14.70;99.90;;;;;;3058095;19;20022;-66
2022/07/29 04:01:00;;;;;;;4.97;1.90;;;14.80;99.90;;;;;;3058386;19;20015;-67
2022/07/29 04:02:05;;;;;;;7.13;2.35;;;14.70;99.90;;;;;;3058012;19;20074;-66
2022/07/29 04:03:10;;;;;;;4.63;2.20;;;14.30;99.90;;;;;;3055884;19;20022;-66
2022/07/29 04:04:14;;;;;;;3.95;2.30;;;14.80;99.90;;;;;;3058936;19;20018;-66
2022/07/29 04:05:17;;;;;;;6.20;2.20;;;14.70;99.90;;;;;;3058436;19;20017;-66
2022/07/29 04:06:21;;;;;;;3.83;2.00;;;14.60;99.90;;;;;;3058115;19;20070;-66
2022/07/29 04:07:22;;;;;;;4.63;2.40;;;14.60;99.90;;;;;;3058066;19;20011;-67
2022/07/29 04:08:26;;;;;;;6.60;2.72;;;14.60;99.90;;;;;;3059034;19;20014;-66
2022/07/29 04:09:27;;;;;;;4.22;2.13;;;14.90;99.90;;;;;;3059014;19;20019;-67
2022/07/29 04:10:32;;;;;;;3.28;1.80;;;14.40;99.90;;;;;;3058270;19;20010;-66
2022/07/29 04:11:34;;;;;;;4.07;2.15;;;14.60;99.90;;;;;;3057080;19;20047;-67
2022/07/29 04:12:38;;;;;;;5.90;2.10;;;14.80;99.90;;;;;;3058138;19;20014;-66
2022/07/29 04:13:39;;;;;;;6.20;2.33;;;14.70;99.90;;;;;;3057329;19;20019;-66
2022/07/29 04:14:43;;;;;;;4.53;2.42;;;14.90;99.90;;;;;;3057997;19;20042;-67
2022/07/29 04:15:44;;;;;;;3.28;2.17;;;14.70;99.90;;;;;;3058804;19;20045;-66
2022/07/29 04:16:48;;;;;;;4.57;2.33;;;14.60;99.90;;;;;;3058025;19;20467;-66
2022/07/29 04:17:49;;;;;;;3.97;2.00;;;15.00;99.90;;;;;;3057817;19;20002;-66
2022/07/29 04:18:56;;;;;;;5.70;2.53;;;14.70;99.90;;;;;;3057708;19;20038;-66
2022/07/29 04:19:57;;;;;;;3.85;2.08;;;14.60;99.90;;;;;;3058921;19;20345;-66
2022/07/29 04:21:03;;;;;;;4.07;2.10;;;14.90;99.90;;;;;;3057466;19;20019;-67
2022/07/29 04:22:05;;;;;;;3.20;2.20;;;14.40;99.90;;;;;;3057766;19;20042;-66
2022/07/29 04:23:08;;;;;;;4.75;2.42;;;14.70;99.90;;;;;;3056886;19;20054;-67
2022/07/29 04:24:10;;;;;;;4.35;2.20;;;14.70;99.90;;;;;;3058186;19;20014;-66
2022/07/29 04:25:14;;;;;;;4.18;2.20;;;14.60;99.90;;;;;;3054947;19;20090;-66
2022/07/29 04:26:15;;;;;;;3.38;2.05;;;14.70;99.90;;;;;;3057113;19;20022;-67
2022/07/29 04:27:19;;;;;;;6.45;2.30;;;14.60;99.90;;;;;;3058226;19;20015;-66
2022/07/29 04:28:20;;;;;;;3.80;2.30;;;14.70;99.90;;;;;;3058614;19;20042;-66
2022/07/29 04:29:25;;;;;;;3.22;2.22;;;14.70;99.90;;;;;;3056994;19;20023;-67
2022/07/29 04:30:26;;;;;;;2.70;1.92;;;14.80;99.90;;;;;;3057441;19;20015;-66
2022/07/29 04:31:30;;;;;;;;;;;14.70;99.90;;;;;;3059273;19;20037;-66
2022/07/29 04:32:31;;;;;;;5.32;2.30;;;14.80;99.90;;;;;;3057608;19;20360;-66
2022/07/29 04:33:35;;;;;;;5.15;2.20;;;15.00;99.90;;;;;;3059077;19;20022;-66
2022/07/29 04:34:39;;;;;;;7.38;2.38;;;15.20;99.90;;;;;;3057395;19;20042;-66
2022/07/29 04:35:44;;;;;;;4.82;2.25;;;14.90;99.90;;;;;;3058480;19;20018;-66
2022/07/29 04:36:45;;;;;;;4.65;2.28;;;14.90;99.90;;;;;;3056024;19;20014;-66
2022/07/29 04:37:49;;;;;;;3.60;2.13;;;14.90;99.90;;;;;;3057986;19;20021;-66
2022/07/29 04:38:51;;;;;;;6.18;2.33;;;14.80;99.90;;;;;;3058087;19;20010;-66
2022/07/29 04:39:54;;;;;;;4.65;2.10;;;15.10;99.90;;;;;;3057774;19;20684;-66
2022/07/29 04:40:56;;;;;;;7.20;2.30;;;14.80;99.90;;;;;;3058663;19;20019;-66
2022/07/29 04:42:00;;;;;;;5.20;2.20;;;14.90;99.90;;;;;;3057733;19;20015;-66
2022/07/29 04:43:02;;;;;;;5.63;2.15;;;14.90;99.90;;;;;;3057152;19;20003;-66
2022/07/29 04:44:07;;;;;;;5.60;2.50;;;14.90;99.90;;;;;;3057614;19;20009;-66
2022/07/29 04:45:09;;;;;;;3.45;2.05;;;14.90;99.90;;;;;;3057134;19;20014;-66
2022/07/29 04:46:13;;;;;;;4.88;2.25;;;14.60;99.90;;;;;;3057481;19;20114;-67
2022/07/29 04:47:14;;;;;;;5.30;2.40;;;14.90;99.90;;;;;;3058175;19;20010;-66
2022/07/29 04:48:18;;;;;;;4.28;2.20;;;15.00;99.90;;;;;;3058053;19;20021;-66
2022/07/29 04:49:19;;;;;;;5.78;2.47;;;15.00;99.90;;;;;;3056280;19;20026;-66
2022/07/29 04:50:27;;;;;;;6.68;2.72;;;14.90;99.90;;;;;;3057828;19;20019;-66
2022/07/29 04:51:28;;;;;;;4.20;2.30;;;14.70;99.90;;;;;;3057065;19;20035;-66
2022/07/29 04:52:32;;;;;;;6.43;2.05;;;15.10;99.90;;;;;;3057300;19;20019;-67
2022/07/29 04:53:33;;;;;;;4.97;2.35;;;14.80;99.90;;;;;;3056613;19;20427;-66
2022/07/29 04:54:37;;;;;;;4.32;2.25;;;15.00;99.90;;;;;;3057681;19;20022;-66
2022/07/29 04:55:38;;;;;;;6.03;2.33;;;14.90;99.90;;;;;;3058104;19;20014;-67
2022/07/29 04:56:42;;;;;;;4.07;2.42;;;15.00;99.90;;;;;;3057302;19;20479;-66
2022/07/29 04:57:43;;;;;;;6.20;2.15;;;15.00;99.90;;;;;;3056930;19;20018;-66
2022/07/29 04:58:47;;;;;;;4.47;2.30;;;15.20;99.90;;;;;;3058251;19;20086;-66
2022/07/29 04:59:49;;;;;;;5.55;2.10;;;14.90;99.90;;;;;;3057068;19;20007;-66
2022/07/29 05:00:53;;;;;;;6.88;2.30;;;15.10;99.90;;;;;;3057966;19;20026;-66
2022/07/29 05:01:54;;;;;;;5.15;2.25;;;15.00;99.90;;;;;;3057602;19;20022;-66
2022/07/29 05:02:58;;;;;;;3.38;2.08;;;15.00;99.90;;;;;;3058882;19;20100;-66
2022/07/29 05:04:02;;;;;;;6.90;2.40;;;15.00;99.90;;;;;;3056715;19;20652;-67
2022/07/29 05:05:04;;;;;;;4.30;2.15;;;14.60;99.90;;;;;;3057607;19;20007;-67
2022/07/29 05:06:10;;;;;;;3.63;2.00;;;15.10;99.90;;;;;;3058200;19;20484;-66
2022/07/29 05:07:12;;;;;;;3.58;2.03;;;15.10;99.90;;;;;;3057955;19;20098;-67
2022/07/29 05:08:16;;;;;;;4.13;2.05;;;15.10;99.90;;;;;;3058400;19;20018;-66
2022/07/29 05:09:17;;;;;;;5.93;2.20;;;15.00;99.90;;;;;;3056911;19;20031;-66
2022/07/29 05:10:21;;;;;;;4.80;2.55;;;15.00;99.90;;;;;;3053253;19;20375;-67
2022/07/29 05:11:22;;;;;;;3.65;2.30;;;15.20;99.90;;;;;;3052085;19;20019;-66
2022/07/29 05:12:27;;;;;;;6.43;2.20;;;15.10;99.90;;;;;;3053835;19;20018;-67
2022/07/29 05:13:28;;;;;;;4.68;2.38;;;15.20;99.90;;;;;;3057097;19;20007;-66
2022/07/29 05:14:32;;;;;;;4.50;2.25;;;14.60;99.90;;;;;;3056664;19;20114;-66
2022/07/29 05:15:34;;;;;;;4.57;2.28;;;14.90;99.90;;;;;;3057671;19;20482;-66
2022/07/29 05:16:39;;;;;;;4.43;2.33;;;15.10;99.90;;;;;;3057527;19;20015;-66
2022/07/29 05:17:41;;;;;;;5.20;2.22;;;15.00;99.90;;;;;;3057862;19;20019;-67
2022/07/29 05:18:45;;;;;;;5.88;2.65;;;14.80;99.90;;;;;;3056630;19;20042;-66
2022/07/29 05:19:46;;;;;;;3.70;2.22;;;15.10;99.90;;;;;;3055683;19;20030;-66
2022/07/29 05:20:50;;;;;;;3.88;2.28;;;15.10;99.90;;;;;;3056421;19;20015;-66
2022/07/29 05:21:54;;;;;;;4.20;2.40;;;15.20;99.90;;;;;;3057766;19;20035;-67
2022/07/29 05:22:58;;;;;;;2.83;2.10;;;15.10;99.90;;;;;;3056774;19;20042;-66
2022/07/29 05:24:00;;;;;;;4.95;2.20;;;15.10;99.90;;;;;;3057816;19;20010;-66
2022/07/29 05:25:05;;;;;;;9.13;2.60;;;14.70;99.90;;;;;;3056823;19;20018;-66
2022/07/29 05:26:06;;;;;;;4.78;2.20;;;15.10;99.90;;;;;;3056944;19;20015;-67
2022/07/29 05:27:10;;;;;;;4.75;2.30;;;15.10;99.90;;;;;;3057537;19;20476;-66
2022/07/29 05:28:12;;;;;;;4.40;2.20;;;15.00;99.90;;;;;;3056101;19;20026;-67
2022/07/29 05:29:16;;;;;;;2.22;1.88;;;15.30;99.90;;;;;;3054512;19;20373;-67
2022/07/29 05:30:17;;;;;;;4.65;2.22;;;15.30;99.90;;;;;;3056401;19;20003;-66
2022/07/29 05:31:21;;;;;;;5.28;1.98;;;15.20;99.90;;;;;;3056590;19;20014;-66
2022/07/29 05:32:25;;;;;;;3.53;2.00;;;15.30;99.90;;;;;;3057960;19;20031;-67
2022/07/29 05:33:29;;;;;;;10.68;2.10;;;15.10;99.90;;;;;;3057486;19;20114;-66
2022/07/29 05:34:31;;;;;;;3.47;2.03;;;15.40;99.90;;;;;;3056836;19;20026;-66
2022/07/29 05:35:36;;;;;;;4.68;2.20;;;15.10;99.90;;;;;;3055805;19;20019;-66
2022/07/29 05:36:40;;;;;;;4.00;2.08;;;15.50;99.90;;;;;;3056237;19;20053;-66
2022/07/29 05:37:47;;;;;;;4.22;2.20;;;15.50;99.90;;;;;;3060340;19;20022;-66
2022/07/29 05:38:48;;;;;;;6.32;2.00;;;15.40;99.90;;;;;;3059061;19;20045;-66